Time;durP1;ratioP1;P1;durP2;ratioP2;P2;SDS_P1;SDS_P2;PMS_P1;PMS_P2;Temp;Humidity;BMP_temperature;BMP_pressure;BME280_temperature;BME280_humidity;BME280_pressure;Samples;Min_cycle;Max_cycle;Signal;HPM_P1;HPM_P2
2024/04/07 00:02:21;;;;;;;3.00;2.80;;;18.20;99.90;;;;;;5069586;28;20207;-74
2024/04/07 00:04:48;;;;;;;4.37;2.90;;;18.20;99.90;;;;;;5071396;28;20646;-74
2024/04/07 00:07:13;;;;;;;4.67;2.60;;;18.20;99.90;;;;;;5069469;28;20307;-74
2024/04/07 00:09:40;;;;;;;2.80;2.60;;;18.10;99.90;;;;;;5069837;28;20294;-73
2024/04/07 00:12:08;;;;;;;4.20;2.70;;;18.10;99.90;;;;;;5069362;28;20957;-74
2024/04/07 00:14:37;;;;;;;2.90;2.70;;;18.10;99.90;;;;;;5069749;28;20235;-74
2024/04/07 00:17:05;;;;;;;2.77;2.57;;;18.10;99.90;;;;;;5069744;28;20253;-74
2024/04/07 00:19:33;;;;;;;3.83;2.70;;;18.00;99.90;;;;;;5080250;28;20600;-74
2024/04/07 00:21:59;;;;;;;4.80;2.67;;;18.00;99.90;;;;;;5086175;28;20294;-74
2024/04/07 00:24:26;;;;;;;2.93;2.73;;;18.00;99.90;;;;;;5069713;28;20330;-74
2024/04/07 00:26:52;;;;;;;2.70;2.50;;;18.00;99.90;;;;;;5082834;28;20290;-74
2024/04/07 00:29:19;;;;;;;3.53;2.73;;;18.00;99.90;;;;;;5089834;28;20626;-74
2024/04/07 00:31:46;;;;;;;4.13;2.90;;;17.90;99.90;;;;;;5088966;28;20213;-74
2024/04/07 00:34:13;;;;;;;3.37;2.30;;;17.90;99.90;;;;;;5080952;28;20223;-74
2024/04/07 00:36:39;;;;;;;4.43;2.60;;;17.90;99.90;;;;;;5069115;28;20298;-74
2024/04/07 00:39:08;;;;;;;3.20;2.80;;;17.90;99.90;;;;;;5069287;28;20257;-74
2024/04/07 00:41:33;;;;;;;3.90;2.67;;;17.90;99.90;;;;;;5081525;28;20677;-74
2024/04/07 00:44:00;;;;;;;2.97;2.77;;;17.90;99.90;;;;;;5089544;28;20207;-74
2024/04/07 00:46:27;;;;;;;3.77;2.23;;;17.90;99.90;;;;;;5089468;28;20293;-74
2024/04/07 00:48:55;;;;;;;3.87;2.87;;;17.90;99.90;;;;;;5085990;28;20203;-75
2024/04/07 00:51:21;;;;;;;2.70;2.50;;;17.80;99.90;;;;;;5068684;28;20295;-74
2024/04/07 00:53:48;;;;;;;2.97;2.33;;;17.80;99.90;;;;;;5068630;28;20239;-74
2024/04/07 00:56:14;;;;;;;2.70;2.60;;;17.80;99.90;;;;;;5074049;28;20281;-73
2024/04/07 00:58:43;;;;;;;2.60;2.40;;;17.80;99.90;;;;;;5089016;28;20297;-73
2024/04/07 01:01:09;;;;;;;3.53;2.93;;;17.80;99.90;;;;;;5088259;28;20611;-73
2024/04/07 01:03:36;;;;;;;3.37;3.07;;;17.80;99.90;;;;;;5088217;28;20298;-73
2024/04/07 01:06:04;;;;;;;2.40;2.30;;;17.70;99.90;;;;;;5086873;28;20203;-73
2024/04/07 01:08:30;;;;;;;4.00;2.67;;;17.70;99.90;;;;;;5088772;28;20221;-73
2024/04/07 01:10:56;;;;;;;2.50;2.37;;;17.70;99.90;;;;;;5088496;28;20768;-73
2024/04/07 01:13:27;;;;;;;2.60;2.40;;;17.70;99.90;;;;;;5088406;28;20317;-73
2024/04/07 01:15:53;;;;;;;2.80;2.50;;;17.70;99.90;;;;;;5088238;28;20238;-74
2024/04/07 01:18:20;;;;;;;5.60;2.60;;;17.70;99.90;;;;;;5088733;28;20290;-73
2024/04/07 01:20:46;;;;;;;3.07;2.77;;;17.70;99.90;;;;;;5073070;28;20675;-73
2024/04/07 01:23:18;;;;;;;4.17;2.80;;;17.70;99.90;;;;;;5074246;28;20889;-73
2024/04/07 01:25:44;;;;;;;2.60;2.40;;;17.70;99.90;;;;;;5075619;28;20286;-73
2024/04/07 01:28:11;;;;;;;2.50;2.30;;;17.70;99.90;;;;;;5088469;28;20227;-74
2024/04/07 01:30:38;;;;;;;2.80;2.60;;;17.70;99.90;;;;;;5088477;28;20206;-73
2024/04/07 01:33:05;;;;;;;3.00;2.53;;;17.70;99.90;;;;;;5088453;28;20267;-74
2024/04/07 01:35:31;;;;;;;4.63;3.00;;;17.70;99.90;;;;;;5076971;28;20238;-73
2024/04/07 01:37:58;;;;;;;2.60;2.40;;;17.70;99.90;;;;;;5081460;28;20211;-73
2024/04/07 01:40:25;;;;;;;2.70;2.37;;;17.80;99.90;;;;;;5087957;28;20238;-73
2024/04/07 01:42:52;;;;;;;2.80;2.60;;;17.80;99.90;;;;;;5087919;28;20207;-73
2024/04/07 01:45:19;;;;;;;4.13;2.80;;;17.80;99.90;;;;;;5088220;28;20207;-73
2024/04/07 01:47:46;;;;;;;3.50;2.37;;;17.70;99.90;;;;;;5088132;28;20259;-73
2024/04/07 01:50:12;;;;;;;3.03;2.73;;;17.70;99.90;;;;;;5081406;28;20199;-74
2024/04/07 01:52:39;;;;;;;3.07;2.80;;;17.70;99.90;;;;;;5076987;28;20554;-73
2024/04/07 01:55:05;;;;;;;6.63;2.60;;;17.70;99.90;;;;;;5067464;28;20388;-74
2024/04/07 01:57:33;;;;;;;2.60;2.40;;;17.70;99.90;;;;;;5067753;28;20211;-73
2024/04/07 01:59:59;;;;;;;2.50;2.30;;;17.70;99.90;;;;;;5067401;28;20321;-73
2024/04/07 02:02:27;;;;;;;4.63;2.33;;;17.70;99.90;;;;;;5067542;28;20681;-74
2024/04/07 02:04:54;;;;;;;2.60;2.37;;;17.70;99.90;;;;;;5067482;28;20291;-72
2024/04/07 02:07:21;;;;;;;2.13;2.03;;;17.70;99.90;;;;;;5081540;28;20206;-72
2024/04/07 02:09:50;;;;;;;2.63;2.40;;;17.70;99.90;;;;;;5080816;28;20195;-73
2024/04/07 02:12:17;;;;;;;3.17;2.87;;;17.70;99.90;;;;;;5087283;28;20225;-73
2024/04/07 02:14:44;;;;;;;3.03;2.40;;;17.70;99.90;;;;;;5072624;28;20318;-73
2024/04/07 02:17:12;;;;;;;2.80;2.47;;;17.70;99.90;;;;;;5069399;28;20204;-73
2024/04/07 02:19:38;;;;;;;3.07;2.50;;;17.70;99.90;;;;;;5079660;28;20199;-72
2024/04/07 02:22:05;;;;;;;2.53;2.40;;;17.70;99.90;;;;;;5078576;28;20287;-72
2024/04/07 02:24:31;;;;;;;4.60;2.50;;;17.60;99.90;;;;;;5077354;28;20285;-72
2024/04/07 02:26:58;;;;;;;2.70;2.50;;;17.60;99.90;;;;;;5070214;28;20204;-73
2024/04/07 02:29:24;;;;;;;3.60;2.57;;;17.60;99.90;;;;;;5071865;28;20843;-73
2024/04/07 02:31:52;;;;;;;2.77;2.57;;;17.60;99.90;;;;;;5075428;28;20213;-73
2024/04/07 02:34:18;;;;;;;3.30;2.90;;;17.60;99.90;;;;;;5078471;28;20235;-74
2024/04/07 02:36:45;;;;;;;2.63;2.43;;;17.60;99.90;;;;;;5071194;28;20199;-73
2024/04/07 02:39:13;;;;;;;4.10;2.60;;;17.60;99.90;;;;;;5076777;28;20201;-73
2024/04/07 02:41:40;;;;;;;2.50;2.30;;;17.60;99.90;;;;;;5075506;28;20214;-74
2024/04/07 02:44:06;;;;;;;3.97;2.60;;;17.60;99.90;;;;;;5072601;28;20581;-74
2024/04/07 02:49:20;;;;;;;2.53;2.33;;;17.60;99.90;;;;;;5074571;28;20247;-72
2024/04/07 02:51:47;;;;;;;2.67;2.47;;;17.60;99.90;;;;;;5077104;28;20203;-72
2024/04/07 02:54:13;;;;;;;3.00;2.70;;;17.60;99.90;;;;;;5066807;28;20238;-72
2024/04/07 02:56:39;;;;;;;3.30;2.17;;;17.60;99.90;;;;;;5071670;28;20634;-72
2024/04/07 02:59:05;;;;;;;2.73;2.47;;;17.60;99.90;;;;;;5086719;28;20243;-72
2024/04/07 03:01:32;;;;;;;2.80;2.60;;;17.70;99.90;;;;;;5086407;28;20237;-72
2024/04/07 03:03:58;;;;;;;2.70;2.50;;;17.70;99.90;;;;;;5087014;28;20301;-72
2024/04/07 03:06:26;;;;;;;2.50;2.10;;;17.70;99.90;;;;;;5079603;28;20310;-72
2024/04/07 03:08:57;;;;;;;2.60;2.40;;;17.70;99.90;;;;;;5066255;28;20665;-72
2024/04/07 03:11:24;;;;;;;2.97;2.20;;;17.80;99.90;;;;;;5067759;28;20206;-72
2024/04/07 03:13:50;;;;;;;2.20;2.10;;;17.80;99.90;;;;;;5086953;28;20242;-72
2024/04/07 03:16:16;;;;;;;2.47;2.27;;;17.80;99.90;;;;;;5085843;28;21088;-73
2024/04/07 03:18:42;;;;;;;3.47;2.53;;;17.80;99.90;;;;;;5086767;28;20297;-73
2024/04/07 03:21:10;;;;;;;2.30;2.10;;;17.80;99.90;;;;;;5084982;28;20287;-73
2024/04/07 03:23:37;;;;;;;3.43;2.07;;;17.80;99.90;;;;;;5067124;28;20207;-73
2024/04/07 03:26:04;;;;;;;2.53;2.30;;;17.80;99.90;;;;;;5066511;28;20302;-74
2024/04/07 03:28:30;;;;;;;2.50;2.40;;;17.80;99.90;;;;;;5066477;28;20254;-73
2024/04/07 03:30:57;;;;;;;2.77;2.57;;;17.80;99.90;;;;;;5086201;28;20260;-73
2024/04/07 03:33:23;;;;;;;2.77;2.57;;;17.80;99.90;;;;;;5086533;28;20206;-74
2024/04/07 03:35:50;;;;;;;3.93;2.53;;;17.70;99.90;;;;;;5086431;28;20238;-73
2024/04/07 03:38:17;;;;;;;2.77;2.37;;;17.70;99.90;;;;;;5067809;28;20238;-74
2024/04/07 03:40:45;;;;;;;3.27;2.43;;;17.70;99.90;;;;;;5066593;28;20247;-73
2024/04/07 03:43:16;;;;;;;4.53;2.67;;;17.60;99.90;;;;;;5066258;28;20195;-74
2024/04/07 03:45:42;;;;;;;2.40;2.20;;;17.60;99.90;;;;;;5077632;28;20677;-73
2024/04/07 03:48:08;;;;;;;2.80;2.60;;;17.50;99.90;;;;;;5086116;28;20205;-74
2024/04/07 03:50:35;;;;;;;3.77;2.70;;;17.40;99.90;;;;;;5086483;28;20202;-74
2024/04/07 03:53:01;;;;;;;4.77;2.40;;;17.40;99.90;;;;;;5084315;28;20210;-74
2024/04/07 03:55:28;;;;;;;4.03;2.40;;;17.40;99.90;;;;;;5086444;28;20307;-75
2024/04/07 03:57:55;;;;;;;2.67;2.47;;;17.40;99.90;;;;;;5086702;28;20253;-75
2024/04/07 04:00:22;;;;;;;3.93;2.23;;;17.40;99.90;;;;;;5086558;28;20218;-75
2024/04/07 04:02:50;;;;;;;2.73;2.53;;;17.40;99.90;;;;;;5086280;28;20301;-75
2024/04/07 04:05:17;;;;;;;2.53;2.37;;;17.40;99.90;;;;;;5086630;28;20213;-74
2024/04/07 04:07:43;;;;;;;3.23;2.20;;;17.50;99.90;;;;;;5076216;28;20294;-72
2024/04/07 04:10:10;;;;;;;2.23;2.10;;;17.50;99.90;;;;;;5065585;28;20295;-72
2024/04/07 04:12:37;;;;;;;4.63;2.50;;;17.50;99.90;;;;;;5068984;28;20219;-73
2024/04/07 04:15:05;;;;;;;2.30;2.10;;;17.50;99.90;;;;;;5069385;28;20424;-73
2024/04/07 04:17:32;;;;;;;4.17;2.80;;;17.50;99.90;;;;;;5069321;28;20988;-72
2024/04/07 04:19:58;;;;;;;2.40;2.30;;;17.50;99.90;;;;;;5069487;28;20238;-72
2024/04/07 04:22:25;;;;;;;2.23;2.13;;;17.50;99.90;;;;;;5072064;28;20243;-72
2024/04/07 04:24:51;;;;;;;2.67;2.47;;;17.50;99.90;;;;;;5069187;28;20298;-73
2024/04/07 04:27:18;;;;;;;2.37;2.27;;;17.50;99.90;;;;;;5088311;28;20290;-73
2024/04/07 04:29:44;;;;;;;2.10;2.00;;;17.50;99.90;;;;;;5089829;28;20321;-73
2024/04/07 04:32:12;;;;;;;4.40;2.73;;;17.50;99.90;;;;;;5089537;28;20605;-73
2024/04/07 04:34:38;;;;;;;3.63;2.37;;;17.50;99.90;;;;;;5089551;28;20235;-73
2024/04/07 04:37:05;;;;;;;2.53;2.33;;;17.50;99.90;;;;;;5088059;28;20206;-73
2024/04/07 04:39:32;;;;;;;3.60;2.47;;;17.50;99.90;;;;;;5089063;28;20286;-73
2024/04/07 04:41:59;;;;;;;2.20;2.10;;;17.50;99.90;;;;;;5088899;28;20210;-74
2024/04/07 04:44:27;;;;;;;2.77;2.33;;;17.50;99.90;;;;;;5089501;28;20238;-74
2024/04/07 04:46:54;;;;;;;2.77;2.20;;;17.50;99.90;;;;;;5089280;28;20213;-74
2024/04/07 04:49:21;;;;;;;3.03;2.30;;;17.50;99.90;;;;;;5088850;28;20245;-74
2024/04/07 04:51:49;;;;;;;2.07;1.87;;;17.50;99.90;;;;;;5087590;28;20210;-74
2024/04/07 04:54:14;;;;;;;5.00;2.50;;;17.50;99.90;;;;;;5086338;28;20237;-74
2024/04/07 04:56:41;;;;;;;4.27;2.43;;;17.50;99.90;;;;;;5089339;28;20207;-74
2024/04/07 04:59:07;;;;;;;2.30;2.20;;;17.50;99.90;;;;;;5089179;28;20203;-74
2024/04/07 05:01:34;;;;;;;2.13;2.03;;;17.50;99.90;;;;;;5089042;28;20203;-74
2024/04/07 05:04:00;;;;;;;2.27;2.07;;;17.50;99.90;;;;;;5088728;28;20238;-74
2024/04/07 05:06:28;;;;;;;2.93;2.10;;;17.50;99.90;;;;;;5088946;28;20242;-74
2024/04/07 05:08:54;;;;;;;2.27;1.90;;;17.50;99.90;;;;;;5087831;28;20210;-74
2024/04/07 05:11:21;;;;;;;2.73;2.10;;;17.50;99.90;;;;;;5089241;28;20213;-74
2024/04/07 05:13:47;;;;;;;2.40;2.10;;;17.50;99.90;;;;;;5088868;28;20314;-75
2024/04/07 05:16:14;;;;;;;2.33;2.00;;;17.50;99.90;;;;;;5088564;28;20698;-75
2024/04/07 05:18:41;;;;;;;2.20;2.00;;;17.50;99.90;;;;;;5088923;28;20321;-75
2024/04/07 05:21:09;;;;;;;2.20;2.10;;;17.50;99.90;;;;;;5077195;28;21038;-75
2024/04/07 05:23:40;;;;;;;2.07;1.97;;;17.40;99.90;;;;;;5077191;28;20230;-74
2024/04/07 05:26:12;;;;;;;2.60;2.40;;;17.40;99.90;;;;;;5088774;28;20206;-74
2024/04/07 05:28:39;;;;;;;2.23;2.13;;;17.40;99.90;;;;;;5087101;28;20216;-75
2024/04/07 05:31:10;;;;;;;2.73;2.53;;;17.30;99.90;;;;;;5068332;28;20285;-74
2024/04/07 05:33:38;;;;;;;2.40;2.20;;;17.30;99.90;;;;;;5068181;28;20219;-75
2024/04/07 05:36:04;;;;;;;2.03;1.93;;;17.30;99.90;;;;;;5067873;28;20239;-73
2024/04/07 05:38:31;;;;;;;2.10;2.00;;;17.20;99.90;;;;;;5083139;28;20216;-73
2024/04/07 05:40:59;;;;;;;2.80;2.10;;;17.20;99.90;;;;;;5088242;28;20297;-73
2024/04/07 05:43:26;;;;;;;2.30;2.10;;;17.20;99.90;;;;;;5088069;28;20206;-73
2024/04/07 05:45:52;;;;;;;2.23;2.10;;;17.30;99.90;;;;;;5087900;28;20301;-73
2024/04/07 05:48:21;;;;;;;2.83;2.20;;;17.40;99.90;;;;;;5079735;28;20203;-73
2024/04/07 05:50:47;;;;;;;2.33;2.00;;;17.20;99.90;;;;;;5067868;28;20290;-73
2024/04/07 05:53:14;;;;;;;3.10;2.00;;;17.10;99.90;;;;;;5067734;28;20326;-73
2024/04/07 05:55:40;;;;;;;2.50;2.00;;;17.20;99.90;;;;;;5086233;28;20598;-73
2024/04/07 05:58:08;;;;;;;2.50;2.30;;;17.30;99.90;;;;;;5087946;28;20207;-74
2024/04/07 06:00:34;;;;;;;3.43;2.10;;;17.30;99.90;;;;;;5088213;28;20238;-72
2024/04/07 06:03:02;;;;;;;5.73;2.40;;;17.30;99.90;;;;;;5087628;28;20211;-72
2024/04/07 06:05:28;;;;;;;2.73;2.33;;;17.30;99.90;;;;;;5088047;28;20207;-73
2024/04/07 06:07:55;;;;;;;2.10;1.90;;;17.40;99.90;;;;;;5087754;28;20234;-72
2024/04/07 06:10:21;;;;;;;2.20;2.00;;;17.40;99.90;;;;;;5085438;28;20198;-72
2024/04/07 06:12:48;;;;;;;2.73;2.50;;;17.50;99.90;;;;;;5087305;28;20233;-73
2024/04/07 06:15:15;;;;;;;2.60;2.00;;;17.50;99.90;;;;;;5066786;28;20243;-73
2024/04/07 06:17:43;;;;;;;1.97;1.80;;;17.50;99.90;;;;;;5067872;28;20747;-72
2024/04/07 06:20:10;;;;;;;2.37;2.17;;;17.60;99.90;;;;;;5087343;28;20267;-72
2024/04/07 06:22:36;;;;;;;2.03;1.93;;;17.60;99.90;;;;;;5079207;28;20209;-74
2024/04/07 06:25:03;;;;;;;1.97;1.80;;;17.70;99.90;;;;;;5070068;28;20199;-74
2024/04/07 06:27:29;;;;;;;2.40;2.13;;;17.70;99.90;;;;;;5067461;28;20231;-75
2024/04/07 06:29:58;;;;;;;4.23;2.20;;;17.80;99.90;;;;;;5067206;28;20292;-75
2024/04/07 06:32:27;;;;;;;5.00;2.00;;;17.80;99.90;;;;;;5068372;28;20562;-73
2024/04/07 06:34:54;;;;;;;1.97;1.83;;;17.80;99.90;;;;;;5086860;28;20229;-73
2024/04/07 06:37:20;;;;;;;2.83;2.00;;;17.80;99.90;;;;;;5087152;28;20230;-73
2024/04/07 06:39:46;;;;;;;3.77;2.00;;;17.90;99.90;;;;;;5080345;28;20282;-73
2024/04/07 06:42:14;;;;;;;2.67;1.93;;;17.90;99.90;;;;;;5073776;28;20213;-73
2024/04/07 06:44:40;;;;;;;2.50;2.20;;;17.90;99.90;;;;;;5098260;28;20265;-75
2024/04/07 06:47:08;;;;;;;2.30;2.10;;;17.90;99.90;;;;;;5092474;28;20289;-74
2024/04/07 06:49:36;;;;;;;2.10;2.00;;;17.90;99.90;;;;;;5097147;28;20199;-73
2024/04/07 06:52:03;;;;;;;4.73;2.00;;;18.00;99.90;;;;;;5075253;28;20203;-74
2024/04/07 06:54:29;;;;;;;2.20;2.00;;;17.80;99.90;;;;;;5074391;28;20284;-73
2024/04/07 06:56:55;;;;;;;2.13;1.93;;;17.90;99.90;;;;;;5067238;28;20645;-74
2024/04/07 06:59:21;;;;;;;3.13;1.93;;;18.00;99.90;;;;;;5066752;28;20553;-73
2024/04/07 07:01:49;;;;;;;2.10;2.00;;;18.00;99.90;;;;;;5067060;28;20549;-73
2024/04/07 07:04:15;;;;;;;5.13;1.90;;;18.00;99.90;;;;;;5066336;28;20306;-73
2024/04/07 07:06:43;;;;;;;5.13;2.20;;;18.00;99.90;;;;;;5067448;28;20203;-73
2024/04/07 07:09:09;;;;;;;2.90;2.10;;;18.00;99.90;;;;;;5086008;28;20644;-73
2024/04/07 07:11:36;;;;;;;1.80;1.70;;;18.10;99.90;;;;;;5086938;28;20207;-73
2024/04/07 07:14:02;;;;;;;2.30;1.90;;;18.10;99.90;;;;;;5086252;28;20231;-73
2024/04/07 07:16:29;;;;;;;2.10;2.00;;;18.10;99.90;;;;;;5086483;28;20243;-73
2024/04/07 07:18:55;;;;;;;2.23;2.10;;;18.20;99.90;;;;;;5086745;28;20211;-72
2024/04/07 07:21:22;;;;;;;2.30;2.10;;;18.30;99.90;;;;;;5086277;28;20560;-73
2024/04/07 07:23:49;;;;;;;2.10;1.80;;;18.30;99.90;;;;;;5072249;28;20261;-74
2024/04/07 07:26:16;;;;;;;1.73;1.63;;;18.40;99.90;;;;;;5066643;28;20214;-73
2024/04/07 07:28:42;;;;;;;2.03;1.60;;;18.40;99.90;;;;;;5066679;28;20298;-73
2024/04/07 07:31:09;;;;;;;1.87;1.77;;;18.50;99.90;;;;;;5076380;28;20297;-73
2024/04/07 07:33:35;;;;;;;1.90;1.80;;;18.50;99.90;;;;;;5086753;28;20307;-73
2024/04/07 07:36:02;;;;;;;2.27;2.00;;;18.60;99.90;;;;;;5086029;28;20344;-73
2024/04/07 07:38:28;;;;;;;2.60;2.27;;;18.60;99.90;;;;;;5083044;28;20203;-73
2024/04/07 07:40:57;;;;;;;2.80;2.17;;;18.60;99.90;;;;;;5086396;28;20217;-73
2024/04/07 07:43:23;;;;;;;2.10;1.80;;;18.50;99.90;;;;;;5071811;28;20242;-73
2024/04/07 07:45:53;;;;;;;2.57;1.93;;;18.60;99.90;;;;;;5066297;28;20238;-73
2024/04/07 07:48:19;;;;;;;2.00;1.90;;;18.60;99.90;;;;;;5069232;28;20217;-74
2024/04/07 07:50:47;;;;;;;2.03;1.80;;;18.70;99.90;;;;;;5070393;28;20306;-74
2024/04/07 07:53:12;;;;;;;1.87;1.70;;;18.80;99.90;;;;;;5081166;28;20203;-74
2024/04/07 07:55:39;;;;;;;2.17;1.93;;;18.80;99.90;;;;;;5090130;28;20249;-76
2024/04/07 07:58:07;;;;;;;2.80;1.70;;;18.80;99.90;;;;;;5090234;28;20206;-73
2024/04/07 08:00:34;;;;;;;1.70;1.60;;;18.80;99.90;;;;;;5090387;28;20307;-73
2024/04/07 08:02:59;;;;;;;3.10;1.60;;;18.80;99.90;;;;;;5089906;28;20213;-74
2024/04/07 08:05:26;;;;;;;1.60;1.50;;;18.80;99.90;;;;;;5090129;28;20207;-73
2024/04/07 08:07:52;;;;;;;2.37;1.70;;;18.90;99.90;;;;;;5088865;28;20211;-73
2024/04/07 08:10:19;;;;;;;1.90;1.60;;;18.90;99.90;;;;;;5072256;28;20203;-73
2024/04/07 08:12:45;;;;;;;2.07;1.40;;;19.10;99.90;;;;;;5069796;28;20346;-74
2024/04/07 08:15:14;;;;;;;1.70;1.60;;;19.20;99.90;;;;;;5069061;28;20318;-73
2024/04/07 08:17:41;;;;;;;1.90;1.80;;;19.30;99.90;;;;;;5069447;28;20570;-73
2024/04/07 08:20:08;;;;;;;1.60;1.50;;;19.50;99.90;;;;;;5069681;28;20210;-73
2024/04/07 08:22:35;;;;;;;2.00;1.53;;;19.70;99.90;;;;;;5069070;28;20791;-73
2024/04/07 08:25:05;;;;;;;4.03;1.60;;;20.00;99.90;;;;;;5083754;28;20281;-73
2024/04/07 08:27:32;;;;;;;3.17;1.40;;;20.40;99.90;;;;;;5069549;28;20218;-73
2024/04/07 08:29:59;;;;;;;1.40;1.30;;;20.70;99.90;;;;;;5069794;28;20278;-73
2024/04/07 08:32:26;;;;;;;1.70;1.40;;;20.80;99.90;;;;;;5071064;28;20202;-73
2024/04/07 08:34:53;;;;;;;2.37;1.80;;;20.90;99.90;;;;;;5069366;28;20235;-73
2024/04/07 08:37:19;;;;;;;3.47;1.50;;;21.10;99.90;;;;;;5070077;28;20206;-73
2024/04/07 08:39:47;;;;;;;3.83;1.70;;;21.20;99.90;;;;;;5077373;28;20227;-72
2024/04/07 08:42:15;;;;;;;2.67;1.53;;;21.20;99.90;;;;;;5079976;28;20235;-74
2024/04/07 08:44:44;;;;;;;2.78;1.60;;;21.20;99.90;;;;;;5078847;28;20734;-73
2024/04/07 08:47:12;;;;;;;6.63;1.53;;;21.30;99.90;;;;;;5079684;28;20199;-73
2024/04/07 08:49:42;;;;;;;2.15;1.33;;;21.40;99.90;;;;;;5078107;28;20200;-72
2024/04/07 08:52:09;;;;;;;3.10;1.35;;;21.40;99.90;;;;;;5080096;28;20283;-72
2024/04/07 08:54:36;;;;;;;4.55;1.40;;;21.50;99.90;;;;;;5077603;28;20286;-74
2024/04/07 08:57:08;;;;;;;1.63;1.35;;;21.60;99.90;;;;;;5077182;28;20202;-72
2024/04/07 08:59:35;;;;;;;1.70;1.60;;;21.60;99.90;;;;;;5077755;28;20191;-73
2024/04/07 09:02:03;;;;;;;4.50;1.52;;;21.70;99.90;;;;;;5078053;28;20234;-73
2024/04/07 09:04:32;;;;;;;4.60;1.77;;;21.80;99.90;;;;;;5077813;28;20235;-72
2024/04/07 09:07:01;;;;;;;3.75;1.90;;;21.80;99.90;;;;;;5077970;28;20203;-73
2024/04/07 09:09:28;;;;;;;1.90;1.60;;;21.80;99.90;;;;;;5078964;28;20202;-74
2024/04/07 09:11:54;;;;;;;4.85;2.10;;;21.80;99.90;;;;;;5076981;28;20199;-74
2024/04/07 09:14:21;;;;;;;3.92;1.83;;;21.70;99.90;;;;;;5081518;28;20252;-74
2024/04/07 09:16:47;;;;;;;2.80;1.45;;;21.70;99.90;;;;;;5081121;28;20253;-74
2024/04/07 09:19:14;;;;;;;5.38;1.90;;;21.70;99.90;;;;;;5083010;28;20199;-74
2024/04/07 09:21:44;;;;;;;2.20;1.52;;;21.60;99.90;;;;;;5082948;28;20242;-74
2024/04/07 09:24:12;;;;;;;4.33;1.70;;;21.60;99.90;;;;;;5086418;28;20199;-74
2024/04/07 09:26:38;;;;;;;4.30;1.60;;;21.50;99.90;;;;;;5089314;28;20203;-74
2024/04/07 09:29:06;;;;;;;4.72;1.77;;;21.50;99.90;;;;;;5086421;28;20620;-74
2024/04/07 09:31:31;;;;;;;4.95;1.60;;;21.50;99.90;;;;;;5086374;28;20202;-74
2024/04/07 09:33:58;;;;;;;3.58;1.90;;;21.40;99.90;;;;;;5086257;28;20666;-74
2024/04/07 09:36:24;;;;;;;1.98;1.80;;;21.40;99.90;;;;;;5086309;28;20245;-73
2024/04/07 09:38:51;;;;;;;2.45;1.67;;;21.30;99.90;;;;;;5086232;28;20208;-74
2024/04/07 09:41:21;;;;;;;1.70;1.60;;;21.30;99.90;;;;;;5068550;28;20570;-74
2024/04/07 09:43:53;;;;;;;4.82;1.75;;;21.20;99.90;;;;;;5066328;28;20217;-76
2024/04/07 09:46:22;;;;;;;3.03;1.48;;;21.20;99.90;;;;;;5066037;28;20569;-75
2024/04/07 09:48:50;;;;;;;6.47;1.73;;;21.10;99.90;;;;;;5065852;28;20330;-74
2024/04/07 09:51:21;;;;;;;2.47;1.65;;;21.10;99.90;;;;;;5065544;28;20241;-74
2024/04/07 09:53:56;;;;;;;2.85;1.50;;;21.10;99.90;;;;;;5066004;28;20211;-75
2024/04/07 09:56:29;;;;;;;1.63;1.52;;;21.10;99.90;;;;;;5080206;28;20707;-74
2024/04/07 09:58:56;;;;;;;2.97;1.42;;;21.10;99.90;;;;;;5085799;28;20203;-74
2024/04/07 10:01:24;;;;;;;2.65;1.80;;;21.10;99.90;;;;;;5085107;28;20207;-74
2024/04/07 10:03:52;;;;;;;4.38;2.10;;;21.10;99.90;;;;;;5072468;28;20521;-74
2024/04/07 10:06:19;;;;;;;3.63;1.83;;;21.10;99.90;;;;;;5065719;28;20219;-74
2024/04/07 10:08:48;;;;;;;3.05;1.70;;;21.10;99.90;;;;;;5077535;28;20210;-74
2024/04/07 10:11:15;;;;;;;4.10;1.77;;;21.10;99.90;;;;;;5088783;28;20239;-75
2024/04/07 10:13:43;;;;;;;2.45;2.03;;;21.10;99.90;;;;;;5106766;28;20237;-75
2024/04/07 10:16:09;;;;;;;3.22;1.98;;;21.10;99.90;;;;;;5106178;28;20242;-74
2024/04/07 10:18:38;;;;;;;6.05;1.92;;;21.10;99.90;;;;;;5084715;28;20237;-74
2024/04/07 10:21:06;;;;;;;2.40;1.88;;;21.10;99.90;;;;;;5074354;28;20636;-75
2024/04/07 10:23:36;;;;;;;4.43;1.88;;;21.10;99.90;;;;;;5081162;28;20230;-74
2024/04/07 10:26:03;;;;;;;2.60;1.50;;;21.00;99.90;;;;;;5078467;28;20208;-74
2024/04/07 10:28:47;;;;;;;5.28;2.00;;;21.10;99.90;;;;;;5065088;28;20697;-74
2024/04/07 10:31:15;;;;;;;2.10;1.95;;;21.10;99.90;;;;;;5065450;28;20744;-75
2024/04/07 10:33:42;;;;;;;1.73;1.50;;;21.20;99.90;;;;;;5065312;28;20239;-74
2024/04/07 10:36:15;;;;;;;1.73;1.63;;;21.20;99.90;;;;;;5065278;28;20318;-75
2024/04/07 10:38:47;;;;;;;2.23;1.67;;;21.20;99.90;;;;;;5065282;28;20284;-74
2024/04/07 10:41:17;;;;;;;2.95;1.85;;;21.30;99.90;;;;;;5066459;28;20202;-75
2024/04/07 10:43:45;;;;;;;4.25;1.75;;;21.30;99.90;;;;;;5065104;28;21169;-75
2024/04/07 10:46:12;;;;;;;2.95;2.00;;;21.30;99.90;;;;;;5070966;28;20975;-74
2024/04/07 10:48:40;;;;;;;3.65;1.90;;;21.20;99.90;;;;;;5081834;28;20263;-74
2024/04/07 10:51:06;;;;;;;4.38;1.85;;;21.20;99.90;;;;;;5067356;28;20210;-75
2024/04/07 10:53:33;;;;;;;3.05;2.00;;;21.20;99.90;;;;;;5066798;28;20212;-75
2024/04/07 10:56:00;;;;;;;2.70;1.92;;;21.30;99.90;;;;;;5068596;28;20708;-75
2024/04/07 10:58:27;;;;;;;2.53;1.52;;;21.40;99.90;;;;;;5066627;28;20249;-75
2024/04/07 11:00:53;;;;;;;2.88;1.70;;;21.40;99.90;;;;;;5086334;28;20587;-75
2024/04/07 11:03:22;;;;;;;2.95;1.85;;;21.50;99.90;;;;;;5086591;28;20211;-75
2024/04/07 11:05:48;;;;;;;2.63;1.58;;;21.60;99.90;;;;;;5086839;28;20325;-75
2024/04/07 11:08:15;;;;;;;2.25;1.55;;;21.70;99.90;;;;;;5086677;28;20206;-75
2024/04/07 11:10:41;;;;;;;3.30;1.73;;;21.80;99.90;;;;;;5084788;28;20281;-75
2024/04/07 11:13:08;;;;;;;3.47;1.75;;;22.00;99.90;;;;;;5086766;28;20686;-75
2024/04/07 11:15:34;;;;;;;3.65;1.58;;;22.20;99.90;;;;;;5081030;28;20357;-72
2024/04/07 11:18:12;;;;;;;2.50;1.85;;;22.20;99.90;;;;;;5066541;28;20302;-73
2024/04/07 11:20:41;;;;;;;3.45;1.95;;;22.30;99.90;;;;;;5066870;28;20193;-74
2024/04/07 11:23:07;;;;;;;4.72;1.70;;;22.40;99.90;;;;;;5069493;28;20306;-73
2024/04/07 11:25:35;;;;;;;4.25;1.70;;;22.50;99.90;;;;;;5079465;28;20282;-73
2024/04/07 11:28:01;;;;;;;2.17;1.77;;;22.50;99.90;;;;;;5090998;28;20242;-73
2024/04/07 11:30:34;;;;;;;3.28;1.60;;;22.60;99.90;;;;;;5091183;28;20265;-73
2024/04/07 11:33:08;;;;;;;3.33;1.50;;;22.70;99.90;;;;;;5091073;28;20194;-74
2024/04/07 11:35:36;;;;;;;2.72;1.65;;;22.80;99.90;;;;;;5090517;28;20689;-73
2024/04/07 11:38:03;;;;;;;5.85;1.95;;;23.00;99.90;;;;;;5074588;28;20298;-73
2024/04/07 11:40:30;;;;;;;6.78;1.52;;;23.10;99.90;;;;;;5071859;28;20218;-74
2024/04/07 11:42:57;;;;;;;5.00;1.60;;;23.20;99.90;;;;;;5070603;28;20195;-73
2024/04/07 11:45:25;;;;;;;3.25;1.80;;;23.40;99.90;;;;;;5069687;28;20211;-73
2024/04/07 11:47:51;;;;;;;2.90;1.58;;;23.50;99.90;;;;;;5070538;28;20214;-73
2024/04/07 11:50:19;;;;;;;2.88;1.50;;;23.70;99.90;;;;;;5070325;28;20573;-73
2024/04/07 11:52:45;;;;;;;3.97;1.83;;;23.80;99.90;;;;;;5070129;28;20363;-73
2024/04/07 11:55:13;;;;;;;5.53;1.80;;;23.90;99.90;;;;;;5071919;28;20214;-73
2024/04/07 11:57:39;;;;;;;2.33;1.58;;;24.10;99.90;;;;;;5087207;28;20318;-73
2024/04/07 12:00:07;;;;;;;6.13;1.80;;;24.10;99.90;;;;;;5090043;28;20211;-73
2024/04/07 12:02:33;;;;;;;5.50;1.50;;;23.90;99.90;;;;;;5087397;28;20234;-75
2024/04/07 12:05:02;;;;;;;2.20;1.33;;;23.90;99.90;;;;;;5087040;28;20210;-74
2024/04/07 12:07:29;;;;;;;6.18;1.70;;;23.80;99.90;;;;;;5089811;28;20207;-74
2024/04/07 12:09:56;;;;;;;6.03;1.90;;;24.00;99.90;;;;;;5085128;28;20728;-73
2024/04/07 12:12:24;;;;;;;4.68;1.85;;;23.90;99.90;;;;;;5075918;28;20223;-73
2024/04/07 12:14:51;;;;;;;5.22;1.75;;;23.80;99.90;;;;;;5066934;28;20207;-73
2024/04/07 12:17:17;;;;;;;2.92;1.33;;;24.00;99.90;;;;;;5066384;28;20298;-74
2024/04/07 12:19:44;;;;;;;2.65;1.60;;;24.00;99.90;;;;;;5066452;28;20203;-74
2024/04/07 12:22:15;;;;;;;2.80;1.40;;;24.10;99.90;;;;;;5070453;28;20215;-74
2024/04/07 12:24:42;;;;;;;2.33;1.60;;;24.10;99.90;;;;;;5086491;28;20195;-73
2024/04/07 12:27:08;;;;;;;3.50;1.77;;;24.10;99.90;;;;;;5084530;28;20226;-74
2024/04/07 12:29:36;;;;;;;4.00;1.92;;;24.30;99.90;;;;;;5086698;28;20266;-73
2024/04/07 12:32:03;;;;;;;2.08;1.50;;;24.40;99.90;;;;;;5086218;28;20309;-74
2024/04/07 12:34:30;;;;;;;1.95;1.70;;;24.50;99.90;;;;;;5086438;28;20266;-74
2024/04/07 12:36:56;;;;;;;2.67;1.88;;;24.60;99.90;;;;;;5086216;28;20258;-74
2024/04/07 12:39:23;;;;;;;3.05;1.70;;;24.60;99.90;;;;;;5086865;28;20246;-74
2024/04/07 12:41:52;;;;;;;3.80;1.83;;;24.70;99.90;;;;;;5076803;28;20199;-74
2024/04/07 12:44:19;;;;;;;2.35;1.92;;;24.70;99.90;;;;;;5066232;28;20935;-73
2024/04/07 12:46:46;;;;;;;6.85;1.67;;;24.80;99.90;;;;;;5066635;28;20288;-74
2024/04/07 12:49:14;;;;;;;6.40;1.92;;;24.70;99.90;;;;;;5066293;28;20247;-75
2024/04/07 12:51:41;;;;;;;4.32;1.67;;;24.60;99.90;;;;;;5069718;28;20210;-74